18°C
Gosport, Hampshire, United Kingdom
Language:  English
Updated19/04/2019 21:30:00 
 

Nearby METAR Reports

 

EGHI - Southampton Wx Centre, United Kingdom
Distance from station: NW 15mi, 24km
Updated: 19-Apr-2019 21:20:00
Clear
Clear
 Wind from varies
Wind: varies 1 mph , 2 km/h
Temperature: 12°C
Dew Point: 5°C
Humidity: 63%
Barometer: 1030 hPa
Summary: Clear
Visibility: greater than 7 miles , 10 km
2019/04/19 20:20 EGHI 192020Z VRB01KT CAVOK 12/05 Q1030
EGHH - Bournemouth Airport, United Kingdom
Distance from station: W 30mi, 49km
Updated: 19-Apr-2019 21:20:00
Clear
Clear
 Wind from ENE
Wind: ENE 5 mph , 7 km/h
Temperature: 14°C
Dew Point: 6°C
Humidity: 59%
Barometer: 1029 hPa
Summary: Clear
Visibility: greater than 7 miles , 10 km
2019/04/19 20:20 EGHH 192020Z 06004KT CAVOK 14/06 Q1029
EGVP - Middle Wallop Airfield, United Kingdom
Distance from station: NW 31mi, 49km
Updated: 19-Apr-2019 20:50:00
Clear
Clear
 Wind from NE
Wind: NE 6 mph , 9 km/h
Temperature: 19°C
Dew Point: 6°C
Humidity: 43%
Barometer: 1029 hPa
Clouds: Clear
Visibility: 6 miles , 10 km
2019/04/19 19:50 EGVP 191950Z AUTO 04005KT 9999 // NCD 19/06 Q1029
 
EGVO - RAF Odiham, United Kingdom
Distance from station: NNE 32mi, 52km
Updated: 19-Apr-2019 20:50:00
Clear
Clear
 Wind from ENE
Wind: ENE 7 mph , 11 km/h
Temperature: 16°C
Dew Point: 4°C
Humidity: 45%
Barometer: 1030 hPa
Clouds: Clear
Visibility: 6 miles , 10 km
2019/04/19 19:50 EGVO 191950Z AUTO 07006KT 9999 NCD 16/04 Q1030
EGKA - Shoreham Airport, United Kingdom
Distance from station: E 37mi, 59km
Updated: 19-Apr-2019 19:50:00
NOT Current
Clear
Clear
 Wind from NNE
Wind: NNE 9 mph , 15 km/h
Temperature: 17°C
Dew Point: 6°C
Humidity: 49%
Barometer: 1028 hPa
Summary: Clear
Visibility: greater than 7 miles , 10 km
2019/04/19 18:50 EGKA 191850Z 03008KT CAVOK 17/06 Q1028
EGDM - Boscombe Down, United Kingdom
Distance from station: NW 38mi, 61km
Updated: 19-Apr-2019 20:50:00
Clear
Clear
 Wind from NNE
Wind: NNE 8 mph , 13 km/h
Temperature: 17°C
Dew Point: 8°C
Humidity: 56%
Barometer: 1029 hPa
Clouds: Clear
Visibility: 6 miles , 10 km
2019/04/19 19:50 EGDM 191950Z AUTO 02007KT 9999 NCD 17/08 Q1029
 
EGLF - Farnborough, United Kingdom
Distance from station: NNE 38mi, 61km
Updated: 19-Apr-2019 21:20:00
Clear
Clear
 Wind from E
Wind: E 5 mph , 7 km/h
Temperature: 15°C
Dew Point: 3°C
Humidity: 45%
Barometer: 1030 hPa
Clouds: Clear
Visibility: 6 miles , 10 km
2019/04/19 20:20 EGLF 192020Z AUTO 09004KT 9999 NCD 15/03 Q1030
EGKK - Gatwick Airport, United Kingdom
Distance from station: ENE 49mi, 78km
Updated: 19-Apr-2019 21:20:00
Clear
Clear
 Wind from ENE
Wind: ENE 5 mph , 7 km/h
Temperature: 15°C
Dew Point: 5°C
Humidity: 51%
Barometer: 1030 hPa
Summary: Clear
Visibility: greater than 7 miles , 10 km
2019/04/19 20:20 EGKK 192020Z 07004KT CAVOK 15/05 Q1030
EGLL - Heathrow Airport, United Kingdom
Distance from station: NNE 57mi, 91km
Updated: 19-Apr-2019 21:20:00
Clear
Clear
 Wind from ENE
Wind: ENE 3 mph , 6 km/h
Temperature: 17°C
Dew Point: 4°C
Humidity: 42%
Barometer: 1030 hPa
Clouds: Clear
Visibility: 6 miles , 10 km
2019/04/19 20:20 EGLL 192020Z AUTO 07003KT 9999 NCD 17/04 Q1030 NOSIG
 
EGUB - RAF Benson, United Kingdom
Distance from station: N 58mi, 93km
Updated: 19-Apr-2019 20:50:00
Clear
Clear
 Wind from NNE
Wind: NNE 8 mph , 13 km/h
Temperature: 13°C
Dew Point: 7°C
Humidity: 67%
Barometer: 1030 hPa
Clouds: Clear
Visibility: 6 miles , 10 km
2019/04/19 19:50 EGUB 191950Z AUTO 03007KT 9999 // NCD 13/07 Q1030
EGWU - RAF Northolt, United Kingdom
Distance from station: NNE 62mi, 99km
Updated: 19-Apr-2019 20:50:00
Clear
Clear
 Wind from E
Wind: E 3 mph , 6 km/h
Temperature: 16°C
Dew Point: 4°C
Humidity: 45%
Barometer: 1030 hPa
Summary: Clear
Visibility: greater than 7 miles , 10 km
2019/04/19 19:50 EGWU 191950Z 09003KT CAVOK 16/04 Q1030 BLU NOSIG
EGKB - Biggin Hill Airport, United Kingdom
Distance from station: NE 62mi, 100km
Updated: 19-Apr-2019 21:20:00
Clear
Clear
 Wind from E
Wind: E 5 mph , 7 km/h
Temperature: 12°C
Dew Point: 5°C
Humidity: 63%
Barometer: 1031 hPa
Summary: Clear
Visibility: greater than 7 miles , 10 km
2019/04/19 20:20 EGKB 192020Z 09004KT CAVOK 12/05 Q1031
 
EGDY - RNAS Yeovilton, United Kingdom
Distance from station: WNW 66mi, 107km
Updated: 19-Apr-2019 20:50:00
Clear
Clear
 Wind from N
Wind: N 5 mph , 7 km/h
Temperature: 17°C
Dew Point: 9°C
Humidity: 59%
Barometer: 1029 hPa
Clouds: Clear
Visibility: 6 miles , 10 km
2019/04/19 19:50 EGDY 191950Z AUTO 36004KT 9999 NCD 17/09 Q1029
EGUO - Colerne Airfield, United Kingdom
Distance from station: NW 67mi, 108km
Updated: 14-Feb-2019 22:50:00
NOT Current
Clear
Clear
 Wind from ENE
Wind: ENE 1 mph , 2 km/h
Temperature: 1°C
Dew Point: 0°C
Humidity: 93%
Barometer: 1029 hPa
Summary: Clear
Visibility: greater than 7 miles , 10 km
2019/02/14 22:50 EGUO 142250Z 06001KT CAVOK 01/00 Q1029 BLU NOSIG
EGVA - RAF Fairford, United Kingdom
Distance from station: NNW 67mi, 108km
Updated: 19-Apr-2019 20:56:00
Clear
Clear
 Wind from N
Wind: N 7 mph , 11 km/h
Temperature: 17°C
Dew Point: 7°C
Humidity: 52%
Barometer: 1030.1 hPa
Clouds: Clear
Visibility: 6 miles , 10 km
2019/04/19 19:56 EGVA 191956Z AUTO 01006KT 9999 CLR 17/07 A3042 RMK AO2 SLP305 T01710072 VISNO RWY27 $
 
EGVN - RAF Brize Norton, United Kingdom
Distance from station: NNW 71mi, 114km
Updated: 19-Apr-2019 20:50:00
Clear
Clear
 Wind from NE
Wind: NE 6 mph , 9 km/h
Temperature: 16°C
Dew Point: 7°C
Humidity: 55%
Barometer: 1030 hPa
Summary: Clear
Visibility: greater than 7 miles , 10 km
2019/04/19 19:50 EGVN 191950Z 04005KT CAVOK 16/07 Q1030 BLACKBLU NOSIG
EGLC - London City Airport, United Kingdom
Distance from station: NE 71mi, 115km
Updated: 19-Apr-2019 21:20:00
Clear
Clear
 Wind from E
Wind: E 6 mph , 9 km/h
Temperature: 15°C
Dew Point: 7°C
Humidity: 59%
Barometer: 1030 hPa
Clouds: Clear
Visibility: 6 miles , 10 km
2019/04/19 20:20 EGLC 192020Z AUTO 09005KT 9999 NCD 15/07 Q1030
EGGD - Bristol Airport, United Kingdom
Distance from station: WNW 80mi, 128km
Updated: 19-Apr-2019 21:20:00
Clear
Clear
 Wind from NE
Wind: NE 5 mph , 7 km/h
Temperature: 17°C
Dew Point: 6°C
Humidity: 49%
Barometer: 1030 hPa
Clouds: Clear
Visibility: 6 miles , 10 km
2019/04/19 20:20 EGGD 192020Z AUTO 04004KT 9999 NCD 17/06 Q1030
 
LFRC - Cherbourg-Maupertus Airport, France
Distance from station: S 81mi, 130km
Updated: 19-Apr-2019 21:00:00
Clear
Clear
 Wind from NE
Wind: NE 6 mph , 9 km/h
Temperature: 11°C
Dew Point: 7°C
Humidity: 77%
Barometer: 1029 hPa
Summary: Clear
Visibility: greater than 7 miles , 10 km
2019/04/19 20:00 LFRC 192000Z AUTO 04005KT CAVOK 11/07 Q1029
EGGW - Luton Airport, United Kingdom
Distance from station: NNE 82mi, 132km
Updated: 19-Apr-2019 21:20:00
Clear
Clear
 Wind from N
Wind: N 5 mph , 7 km/h
Temperature: 14°C
Dew Point: 9°C
Humidity: 72%
Barometer: 1031 hPa
Clouds: Clear
Visibility: 6 miles , 10 km
2019/04/19 20:20 EGGW 192020Z AUTO 01004KT 9999 NCD 14/09 Q1031